Time;durP1;ratioP1;P1;durP2;ratioP2;P2;SDS_P1;SDS_P2;PMS_P1;PMS_P2;Temp;Humidity;BMP_temperature;BMP_pressure;BME280_temperature;BME280_humidity;BME280_pressure;Samples;Min_cycle;Max_cycle;Signal;HPM_P1;HPM_P2
2023/03/05 00:01:10;;;;;;;;;;;;;;;22.00;26.76;97357.03;5073618;28;1922;-79
2023/03/05 00:03:35;;;;;;;;;;;;;;;22.02;26.87;97362.22;5076957;28;1151;-79
2023/03/05 00:06:01;;;;;;;;;;;;;;;22.15;26.29;97362.97;5076514;28;924;-78
2023/03/05 00:08:27;;;;;;;;;;;;;;;21.77;26.92;97358.31;5060044;28;1291;-77
2023/03/05 00:10:59;;;;;;;;;;;;;;;21.79;26.91;97358.63;5076734;28;949;-79
2023/03/05 00:13:24;;;;;;;;;;;;;;;21.83;27.31;97362.13;5076756;28;954;-78
2023/03/05 00:15:50;;;;;;;;;;;;;;;22.15;26.51;97357.31;5076745;28;938;-79
2023/03/05 00:18:16;;;;;;;;;;;;;;;22.18;26.71;97355.59;5076618;28;1117;-78
2023/03/05 00:20:41;;;;;;;;;;;;;;;21.88;26.72;97359.97;5076405;28;1917;-79
2023/03/05 00:23:07;;;;;;;;;;;;;;;21.81;27.13;97356.16;5076441;28;912;-79
2023/03/05 00:25:35;;;;;;;;;;;;;;;21.74;27.32;97350.75;5093779;28;918;-79
2023/03/05 00:28:01;;;;;;;;;;;;;;;22.23;26.58;97352.16;5093124;28;983;-79
2023/03/05 00:30:27;;;;;;;;;;;;;;;22.17;26.58;97354.78;5056125;28;1069;-78
2023/03/05 00:32:52;;;;;;;;;;;;;;;21.99;26.88;97341.28;4992601;28;1406;-79
2023/03/05 00:35:18;;;;;;;;;;;;;;;21.94;27.04;97343.94;4993740;28;1241;-78
2023/03/05 00:37:43;;;;;;;;;;;;;;;21.97;26.69;97340.19;4974252;28;1003;-79
2023/03/05 00:40:09;;;;;;;;;;;;;;;22.06;27.06;97343.06;4990272;28;1914;-79
2023/03/05 00:42:37;;;;;;;;;;;;;;;22.08;27.05;97340.56;4990282;28;1127;-79
2023/03/05 00:45:05;;;;;;;;;;;;;;;22.27;26.73;97342.25;4990357;28;1238;-79
2023/03/05 00:47:31;;;;;;;;;;;;;;;21.96;26.86;97344.25;4974454;28;954;-79
2023/03/05 00:49:57;;;;;;;;;;;;;;;21.59;27.36;97344.81;4973767;28;1426;-78
2023/03/05 00:52:22;;;;;;;;;;;;;;;21.81;27.32;97350.50;4957815;28;938;-78
2023/03/05 00:54:48;;;;;;;;;;;;;;;22.05;26.77;97338.66;4958311;28;1054;-79
2023/03/05 00:57:13;;;;;;;;;;;;;;;22.16;26.97;97341.88;4978180;28;1030;-79
2023/03/05 00:59:39;;;;;;;;;;;;;;;21.79;27.22;97329.53;4961945;28;1168;-79
2023/03/05 01:02:04;;;;;;;;;;;;;;;21.93;26.80;97326.16;4961899;28;1979;-79
2023/03/05 01:04:30;;;;;;;;;;;;;;;21.89;27.18;97330.38;5006587;28;1115;-78
2023/03/05 01:06:56;;;;;;;;;;;;;;;21.76;27.40;97331.25;5016773;28;1289;-79
2023/03/05 01:09:24;;;;;;;;;;;;;;;22.13;26.78;97339.22;5000702;28;1030;-78
2023/03/05 01:11:50;;;;;;;;;;;;;;;22.34;26.53;97338.34;5016877;28;1359;-79
2023/03/05 01:14:15;;;;;;;;;;;;;;;21.93;27.19;97328.22;4998060;28;951;-78
2023/03/05 01:16:41;;;;;;;;;;;;;;;21.89;27.12;97327.53;5013288;28;910;-79
2023/03/05 01:19:07;;;;;;;;;;;;;;;21.84;27.30;97332.56;5036253;28;1165;-79
2023/03/05 01:21:33;;;;;;;;;;;;;;;22.15;26.67;97328.19;5036343;28;1918;-79
2023/03/05 01:23:59;;;;;;;;;;;;;;;22.19;26.90;97331.69;5036297;28;1166;-78
2023/03/05 01:26:24;;;;;;;;;;;;;;;22.20;26.63;97331.19;5036555;28;946;-78
2023/03/05 01:28:50;;;;;;;;;;;;;;;21.96;27.05;97333.72;5036887;28;912;-78
2023/03/05 01:31:15;;;;;;;;;;;;;;;21.82;27.28;97326.56;5036378;28;1125;-78
2023/03/05 01:33:41;;;;;;;;;;;;;;;21.69;27.54;97325.84;5036464;28;952;-79
2023/03/05 01:36:12;;;;;;;;;;;;;;;22.03;26.98;97321.34;5019766;28;1056;-78
2023/03/05 01:38:38;;;;;;;;;;;;;;;21.93;27.48;97333.88;5034462;28;1182;-78
2023/03/05 01:41:03;;;;;;;;;;;;;;;22.08;27.13;97332.06;5059542;28;1980;-79
2023/03/05 01:43:29;;;;;;;;;;;;;;;21.81;27.43;97338.34;5042678;28;1067;-78
2023/03/05 01:46:30;;;;;;;;;;;;;;;21.81;27.25;97333.50;5019424;28;1059;-78
2023/03/05 01:48:58;;;;;;;;;;;;;;;21.69;27.66;97337.19;5015907;28;1141;-79
2023/03/05 01:51:24;;;;;;;;;;;;;;;21.78;27.59;97340.06;4983478;28;1094;-79
2023/03/05 01:53:50;;;;;;;;;;;;;;;22.05;27.06;97345.09;4983743;28;980;-79
2023/03/05 01:56:16;;;;;;;;;;;;;;;21.88;27.16;97348.63;4983639;28;1430;-78
2023/03/05 01:58:41;;;;;;;;;;;;;;;21.63;27.41;97350.34;4983668;28;1154;-79
2023/03/05 02:01:07;;;;;;;;;;;;;;;21.75;27.20;97357.97;4999584;28;1911;-78
2023/03/05 02:03:32;;;;;;;;;;;;;;;21.73;27.28;97360.50;5015617;28;1205;-79
2023/03/05 02:05:58;;;;;;;;;;;;;;;22.18;26.85;97362.06;4999479;28;1115;-79
2023/03/05 02:08:24;;;;;;;;;;;;;;;22.43;26.55;97366.72;5015788;28;1223;-79
2023/03/05 02:10:50;;;;;;;;;;;;;;;21.82;26.78;97363.38;4999401;28;1096;-78
2023/03/05 02:13:17;;;;;;;;;;;;;;;21.71;27.48;97363.00;4999567;28;1231;-79
2023/03/05 02:15:43;;;;;;;;;;;;;;;21.56;27.61;97362.72;4999125;28;920;-78
2023/03/05 02:18:09;;;;;;;;;;;;;;;21.90;27.09;97363.91;4976590;28;922;-78
2023/03/05 02:20:43;;;;;;;;;;;;;;;21.97;27.26;97357.19;4976327;28;1915;-79
2023/03/05 02:23:09;;;;;;;;;;;;;;;22.11;26.59;97356.66;4980928;28;885;-79
2023/03/05 02:25:34;;;;;;;;;;;;;;;22.13;26.59;97359.81;4979747;28;844;-79
2023/03/05 02:28:01;;;;;;;;;;;;;;;22.23;26.82;97369.16;4963820;28;1167;-79
2023/03/05 02:30:26;;;;;;;;;;;;;;;21.85;26.89;97361.66;4979756;28;1031;-78
2023/03/05 02:32:52;;;;;;;;;;;;;;;21.84;26.98;97355.22;4995963;28;1239;-79
2023/03/05 02:35:19;;;;;;;;;;;;;;;21.65;27.21;97359.16;4963503;28;1397;-78
2023/03/05 02:37:45;;;;;;;;;;;;;;;21.79;27.37;97352.97;4979500;28;1037;-79
2023/03/05 02:40:11;;;;;;;;;;;;;;;22.16;26.52;97356.03;4963317;28;1903;-78
2023/03/05 02:42:37;;;;;;;;;;;;;;;22.14;26.63;97355.72;4979700;28;1128;-78
2023/03/05 02:45:03;;;;;;;;;;;;;;;21.64;27.15;97363.25;4995681;28;1283;-78
2023/03/05 02:47:29;;;;;;;;;;;;;;;21.78;27.15;97351.41;4972774;28;1158;-78
2023/03/05 02:49:54;;;;;;;;;;;;;;;21.70;27.04;97361.41;4940777;28;1101;-78
2023/03/05 02:52:22;;;;;;;;;;;;;;;21.96;26.72;97359.22;5004840;28;946;-79
2023/03/05 02:54:48;;;;;;;;;;;;;;;22.07;26.41;97355.97;4986245;28;1177;-79
2023/03/05 02:57:14;;;;;;;;;;;;;;;22.19;26.42;97355.13;5057817;28;939;-78
2023/03/05 02:59:39;;;;;;;;;;;;;;;21.78;26.77;97351.41;5071128;28;1141;-79
2023/03/05 03:02:05;;;;;;;;;;;;;;;21.65;27.29;97359.16;5071296;28;2011;-79
2023/03/05 03:04:31;;;;;;;;;;;;;;;21.68;27.23;97363.91;5054297;28;1030;-79
2023/03/05 03:06:56;;;;;;;;;;;;;;;21.82;27.01;97360.56;5054221;28;1165;-78
2023/03/05 03:09:22;;;;;;;;;;;;;;;21.76;26.96;97365.25;5037628;28;934;-79
2023/03/05 03:11:47;;;;;;;;;;;;;;;22.05;26.42;97367.75;5037780;28;1242;-79
2023/03/05 03:14:13;;;;;;;;;;;;;;;22.04;26.64;97362.56;5021281;28;1064;-79
2023/03/05 03:16:39;;;;;;;;;;;;;;;21.93;26.91;97367.84;5054427;28;1102;-79
2023/03/05 03:19:04;;;;;;;;;;;;;;;21.71;26.86;97374.34;5020419;28;1159;-79
2023/03/05 03:21:30;;;;;;;;;;;;;;;21.59;27.62;97372.34;4997728;28;1984;-79
2023/03/05 03:23:56;;;;;;;;;;;;;;;22.31;26.07;97371.25;4981538;28;1186;-79
2023/03/05 03:26:21;;;;;;;;;;;;;;;22.06;26.66;97365.72;5014219;28;1286;-78
2023/03/05 03:28:47;;;;;;;;;;;;;;;21.93;26.52;97374.31;5014580;28;945;-79
2023/03/05 03:31:12;;;;;;;;;;;;;;;21.88;26.82;97376.97;5012279;28;1232;-79
2023/03/05 03:33:38;;;;;;;;;;;;;;;21.80;26.87;97363.03;5014461;28;902;-79
2023/03/05 03:36:04;;;;;;;;;;;;;;;21.47;27.13;97370.34;4994741;28;1023;-78
2023/03/05 03:38:30;;;;;;;;;;;;;;;22.18;26.56;97367.72;5039804;28;1202;-79
2023/03/05 03:40:55;;;;;;;;;;;;;;;22.31;26.35;97365.56;5033987;28;1985;-79
2023/03/05 03:43:21;;;;;;;;;;;;;;;22.09;26.56;97359.13;5050167;28;930;-79
2023/03/05 03:45:46;;;;;;;;;;;;;;;21.79;26.97;97361.47;5017379;28;1190;-79
2023/03/05 03:48:12;;;;;;;;;;;;;;;21.83;26.89;97362.13;5017457;28;1051;-78
2023/03/05 03:50:40;;;;;;;;;;;;;;;21.57;27.27;97363.53;5033868;28;1000;-79
2023/03/05 03:53:06;;;;;;;;;;;;;;;22.04;26.52;97352.03;5017330;28;978;-78
2023/03/05 03:55:32;;;;;;;;;;;;;;;22.15;26.47;97359.34;5033666;28;1019;-79
2023/03/05 03:57:57;;;;;;;;;;;;;;;21.79;26.51;97364.31;5035355;28;995;-78
2023/03/05 04:00:23;;;;;;;;;;;;;;;21.83;26.89;97359.31;5088428;28;1983;-79
2023/03/05 04:02:48;;;;;;;;;;;;;;;21.52;27.07;97364.91;5071181;28;848;-78
2023/03/05 04:05:14;;;;;;;;;;;;;;;21.79;26.81;97364.31;5088318;28;966;-79
2023/03/05 04:07:39;;;;;;;;;;;;;;;21.89;26.58;97367.19;5055573;28;1151;-79
2023/03/05 04:10:05;;;;;;;;;;;;;;;22.05;26.62;97364.16;5070901;28;979;-79
2023/03/05 04:12:31;;;;;;;;;;;;;;;21.73;26.73;97368.97;5076249;28;1395;-79
2023/03/05 04:14:56;;;;;;;;;;;;;;;21.39;27.57;97363.38;5076573;28;1023;-79
2023/03/05 04:17:22;;;;;;;;;;;;;;;21.43;27.48;97358.38;5076566;28;935;-79
2023/03/05 04:19:47;;;;;;;;;;;;;;;21.78;26.97;97362.72;5093350;28;945;-79
2023/03/05 04:22:13;;;;;;;;;;;;;;;22.01;26.47;97355.78;5076644;28;1985;-80
2023/03/05 04:24:39;;;;;;;;;;;;;;;22.36;26.11;97361.34;5043272;28;1137;-79
2023/03/05 04:27:05;;;;;;;;;;;;;;;21.96;26.38;97355.59;5060017;28;1186;-78
2023/03/05 04:29:31;;;;;;;;;;;;;;;21.85;26.79;97339.78;5076020;28;962;-79
2023/03/05 04:31:56;;;;;;;;;;;;;;;21.76;26.69;97348.25;5042573;28;972;-79
2023/03/05 04:34:22;;;;;;;;;;;;;;;21.84;26.77;97338.22;5072905;28;983;-79
2023/03/05 04:36:47;;;;;;;;;;;;;;;21.94;26.71;97341.09;5073067;28;997;-79
2023/03/05 04:39:13;;;;;;;;;;;;;;;22.14;26.40;97333.06;5073387;28;974;-80
2023/03/05 04:41:38;;;;;;;;;;;;;;;21.75;26.78;97340.19;5073233;28;1910;-79
2023/03/05 04:44:04;;;;;;;;;;;;;;;21.76;26.83;97342.59;5043756;28;1116;-79
2023/03/05 04:46:30;;;;;;;;;;;;;;;21.63;26.84;97350.34;5033390;28;1012;-79
2023/03/05 04:48:55;;;;;;;;;;;;;;;21.94;26.50;97352.44;5033213;28;944;-79
2023/03/05 04:51:21;;;;;;;;;;;;;;;22.04;26.33;97351.25;5033303;28;956;-79
2023/03/05 04:53:47;;;;;;;;;;;;;;;22.26;26.26;97362.56;5033011;28;1043;-79
2023/03/05 04:56:12;;;;;;;;;;;;;;;21.95;26.59;97354.00;5033057;28;1425;-79
2023/03/05 04:58:38;;;;;;;;;;;;;;;21.72;26.87;97347.59;5033025;28;1138;-79
2023/03/05 05:01:03;;;;;;;;;;;;;;;21.80;26.62;97354.53;5032937;28;1993;-79
2023/03/05 05:03:29;;;;;;;;;;;;;;;21.92;26.66;97357.78;5043299;28;1126;-79
2023/03/05 05:05:55;;;;;;;;;;;;;;;22.17;26.05;97354.78;5096372;28;950;-79
2023/03/05 05:08:21;;;;;;;;;;;;;;;22.19;26.25;97357.19;5074148;28;1223;-79
2023/03/05 05:10:54;;;;;;;;;;;;;;;21.42;26.38;97274.72;5074058;28;923;-79
2023/03/05 05:13:20;;;;;;;;;;;;;;;21.75;26.67;97357.19;5073711;28;963;-79
2023/03/05 05:15:45;;;;;;;;;;;;;;;21.69;26.82;97359.03;5041088;28;1119;-79
2023/03/05 05:18:11;;;;;;;;;;;;;;;22.09;26.20;97357.09;5072512;28;1264;-79
2023/03/05 05:20:37;;;;;;;;;;;;;;;22.11;26.39;97359.47;5063999;28;1906;-79
2023/03/05 05:23:02;;;;;;;;;;;;;;;22.17;25.93;97357.63;5065991;28;1285;-79
2023/03/05 05:25:28;;;;;;;;;;;;;;;21.95;26.37;97354.81;5060746;28;1495;-79
2023/03/05 05:27:53;;;;;;;;;;;;;;;21.84;26.37;97349.53;5045610;28;1394;-79
2023/03/05 05:30:19;;;;;;;;;;;;;;;21.91;26.47;97347.69;5044330;28;1292;-79
2023/03/05 05:32:45;;;;;;;;;;;;;;;22.10;26.04;97347.38;5083531;28;1283;-79
2023/03/05 05:35:10;;;;;;;;;;;;;;;22.10;26.17;97344.53;5072532;28;1007;-79
2023/03/05 05:37:36;;;;;;;;;;;;;;;22.18;26.02;97350.72;5072379;28;1034;-79
2023/03/05 05:40:04;;;;;;;;;;;;;;;21.75;26.40;97346.66;5035779;28;1973;-79
2023/03/05 05:42:30;;;;;;;;;;;;;;;21.69;26.33;97342.84;5038809;28;947;-79
2023/03/05 05:44:55;;;;;;;;;;;;;;;21.80;26.58;97348.88;5039782;28;1150;-80
2023/03/05 05:47:21;;;;;;;;;;;;;;;22.01;25.94;97346.50;5052771;28;1220;-79
2023/03/05 05:49:46;;;;;;;;;;;;;;;21.96;26.09;97358.41;5036352;28;976;-79
2023/03/05 05:52:13;;;;;;;;;;;;;;;22.21;25.62;97355.44;5036381;28;1072;-79
2023/03/05 05:54:38;;;;;;;;;;;;;;;21.74;26.43;97356.41;5036386;28;962;-79
2023/03/05 05:57:04;;;;;;;;;;;;;;;21.44;26.60;97357.13;5036254;28;985;-79
2023/03/05 05:59:30;;;;;;;;;;;;;;;21.48;26.74;97364.22;5019792;28;1091;-79
2023/03/05 06:01:55;;;;;;;;;;;;;;;21.94;26.04;97367.38;5036182;28;1910;-79
2023/03/05 06:04:21;;;;;;;;;;;;;;;22.05;25.76;97370.59;5015947;28;908;-79
2023/03/05 06:06:46;;;;;;;;;;;;;;;22.04;25.84;97374.69;4999579;28;1210;-79
2023/03/05 06:09:12;;;;;;;;;;;;;;;21.93;26.11;97379.97;4999604;28;927;-79
2023/03/05 06:11:37;;;;;;;;;;;;;;;21.81;26.13;97381.63;5015856;28;1127;-79
2023/03/05 06:14:03;;;;;;;;;;;;;;;21.67;26.50;97385.00;4983767;28;1103;-79
2023/03/05 06:16:29;;;;;;;;;;;;;;;21.68;26.45;97392.22;4999281;28;994;-80
2023/03/05 06:18:54;;;;;;;;;;;;;;;21.85;26.43;97396.44;5030399;28;930;-80
2023/03/05 06:21:20;;;;;;;;;;;;;;;22.18;25.65;97403.78;4997297;28;1914;-80
2023/03/05 06:23:46;;;;;;;;;;;;;;;21.93;26.25;97401.84;5028059;28;1549;-81
2023/03/05 06:26:12;;;;;;;;;;;;;;;21.78;26.19;97402.38;5027026;28;1330;-78
2023/03/05 06:28:38;;;;;;;;;;;;;;;21.98;26.24;97392.75;5035470;28;1521;-81
2023/03/05 06:31:03;;;;;;;;;;;;;;;22.06;26.25;97388.38;5037315;28;1356;-80
2023/03/05 06:33:29;;;;;;;;;;;;;;;22.20;25.68;97385.03;5022773;28;1592;-81
2023/03/05 06:35:55;;;;;;;;;;;;;;;21.96;25.82;97383.91;5069160;28;1575;-81
2023/03/05 06:38:20;;;;;;;;;;;;;;;21.92;26.27;97377.63;5049800;28;1395;-80
2023/03/05 06:40:46;;;;;;;;;;;;;;;21.86;26.47;97385.91;5055503;28;1914;-79
2023/03/05 06:43:11;;;;;;;;;;;;;;;22.05;26.27;97383.97;5084679;28;1411;-80
2023/03/05 06:45:37;;;;;;;;;;;;;;;22.15;25.98;97379.97;5058685;28;1120;-80
2023/03/05 06:48:03;;;;;;;;;;;;;;;22.01;25.83;97391.81;5062045;28;876;-80
2023/03/05 06:50:28;;;;;;;;;;;;;;;21.81;26.53;97395.81;5056598;28;1234;-80
2023/03/05 06:52:54;;;;;;;;;;;;;;;21.76;26.29;97399.22;5077102;28;952;-80
2023/03/05 06:55:20;;;;;;;;;;;;;;;21.88;26.39;97382.63;5061405;28;999;-80
2023/03/05 06:57:45;;;;;;;;;;;;;;;22.12;25.86;97385.78;5045020;28;1133;-79
2023/03/05 07:00:11;;;;;;;;;;;;;;;22.19;25.76;97397.63;5095053;28;1906;-80
2023/03/05 07:02:37;;;;;;;;;;;;;;;21.83;26.35;97393.28;5064407;28;1537;-79
2023/03/05 07:05:03;;;;;;;;;;;;;;;21.88;26.19;97389.06;5098440;28;1552;-80
2023/03/05 07:07:29;;;;;;;;;;;;;;;21.72;26.30;97395.72;5054484;28;1601;-80
2023/03/05 07:09:54;;;;;;;;;;;;;;;21.93;26.31;97390.53;5055093;28;992;-80
2023/03/05 07:12:20;;;;;;;;;;;;;;;22.14;25.92;97392.56;5038398;28;1126;-80
2023/03/05 07:14:45;;;;;;;;;;;;;;;22.14;25.95;97389.72;5038394;28;987;-78
2023/03/05 07:17:14;;;;;;;;;;;;;;;22.01;25.81;97386.94;5054523;28;1183;-80
2023/03/05 07:19:39;;;;;;;;;;;;;;;21.85;26.19;97385.09;5038475;28;949;-80
2023/03/05 07:22:05;;;;;;;;;;;;;;;21.79;26.57;97377.66;5037690;28;1925;-80
2023/03/05 07:24:31;;;;;;;;;;;;;;;22.12;26.16;97369.56;5010872;28;1018;-81
2023/03/05 07:26:56;;;;;;;;;;;;;;;22.08;26.12;97369.69;5034571;28;1158;-80
2023/03/05 07:29:23;;;;;;;;;;;;;;;22.15;25.79;97367.84;5034655;28;920;-80
2023/03/05 07:31:48;;;;;;;;;;;;;;;21.88;26.56;97359.97;5051509;28;945;-80
2023/03/05 07:34:14;;;;;;;;;;;;;;;21.64;26.82;97357.59;5050934;28;879;-80
2023/03/05 07:36:41;;;;;;;;;;;;;;;21.85;26.28;97350.34;5050700;28;954;-80
2023/03/05 07:39:06;;;;;;;;;;;;;;;22.25;26.02;97355.31;5034272;28;1011;-81
2023/03/05 07:41:32;;;;;;;;;;;;;;;22.32;25.78;97355.81;5050581;28;1980;-80
2023/03/05 07:43:58;;;;;;;;;;;;;;;21.73;26.61;97349.16;5036664;28;1105;-80
2023/03/05 07:46:24;;;;;;;;;;;;;;;21.89;26.49;97350.22;5056186;28;948;-80
2023/03/05 07:48:50;;;;;;;;;;;;;;;21.74;26.63;97341.47;5088958;28;817;-81
2023/03/05 07:51:16;;;;;;;;;;;;;;;22.11;26.31;97348.16;5088998;28;1247;-78
2023/03/05 07:53:42;;;;;;;;;;;;;;;22.06;26.03;97348.72;5088597;28;1038;-80
2023/03/05 07:56:08;;;;;;;;;;;;;;;22.26;26.05;97363.34;5110882;28;1132;-80
2023/03/05 07:58:33;;;;;;;;;;;;;;;21.96;26.13;97344.25;5077470;28;999;-78
2023/03/05 08:00:59;;;;;;;;;;;;;;;21.77;26.30;97349.81;5094226;28;1910;-80
2023/03/05 08:03:24;;;;;;;;;;;;;;;21.74;26.49;97350.75;5076998;28;792;-80
2023/03/05 08:05:50;;;;;;;;;;;;;;;22.18;25.81;97350.72;5077166;28;1203;-80
2023/03/05 08:08:16;;;;;;;;;;;;;;;22.29;25.87;97344.63;5073413;28;1070;-79
2023/03/05 08:10:42;;;;;;;;;;;;;;;22.28;25.86;97345.88;5040124;28;1213;-79
2023/03/05 08:13:07;;;;;;;;;;;;;;;21.77;26.49;97347.00;5057138;28;1033;-80
2023/03/05 08:15:33;;;;;;;;;;;;;;;21.59;26.76;97344.81;5056966;28;1362;-80
2023/03/05 08:17:58;;;;;;;;;;;;;;;21.67;26.82;97348.19;5056874;28;935;-80
2023/03/05 08:20:24;;;;;;;;;;;;;;;22.07;25.80;97350.28;5040215;28;1914;-80
2023/03/05 08:22:49;;;;;;;;;;;;;;;22.19;25.77;97340.97;5056424;28;989;-80
2023/03/05 08:25:15;;;;;;;;;;;;;;;22.25;25.52;97353.25;5040207;28;1182;-80
2023/03/05 08:27:41;;;;;;;;;;;;;;;21.70;26.55;97358.56;5076383;28;921;-79
2023/03/05 08:30:07;;;;;;;;;;;;;;;21.63;26.57;97361.69;5059872;28;1025;-80
2023/03/05 08:32:33;;;;;;;;;;;;;;;21.43;26.71;97352.72;5073361;28;929;-80
2023/03/05 08:34:58;;;;;;;;;;;;;;;21.74;26.58;97356.41;5053100;28;1017;-80
2023/03/05 08:37:24;;;;;;;;;;;;;;;22.12;25.93;97346.88;5069844;28;864;-80
2023/03/05 08:39:50;;;;;;;;;;;;;;;22.28;25.71;97349.50;5084831;28;1205;-80
2023/03/05 08:42:15;;;;;;;;;;;;;;;22.15;25.83;97340.31;5073174;28;1961;-79
2023/03/05 08:44:41;;;;;;;;;;;;;;;21.85;25.90;97339.00;5092987;28;954;-80
2023/03/05 08:47:06;;;;;;;;;;;;;;;21.69;26.21;97337.19;5059891;28;1149;-80
2023/03/05 08:49:32;;;;;;;;;;;;;;;21.61;26.79;97344.38;5076439;28;966;-80
2023/03/05 08:51:57;;;;;;;;;;;;;;;21.84;26.08;97329.72;5076437;28;987;-80
2023/03/05 08:54:23;;;;;;;;;;;;;;;22.06;25.82;97323.22;5076546;28;1619;-80
2023/03/05 08:56:49;;;;;;;;;;;;;;;22.08;25.82;97317.91;5093124;28;1041;-80
2023/03/05 08:59:14;;;;;;;;;;;;;;;21.91;26.03;97322.97;5030263;28;1182;-80
2023/03/05 09:01:40;;;;;;;;;;;;;;;21.55;26.60;97318.69;5069491;28;1898;-80
2023/03/05 09:04:05;;;;;;;;;;;;;;;21.91;26.15;97313.69;5069584;28;1031;-80
2023/03/05 09:06:33;;;;;;;;;;;;;;;21.99;26.23;97309.34;5052929;28;1197;-79
2023/03/05 09:08:58;;;;;;;;;;;;;;;22.06;25.92;97315.50;5052533;28;952;-79
2023/03/05 09:11:24;;;;;;;;;;;;;;;21.89;26.28;97316.22;5036315;28;1281;-79
2023/03/05 09:13:50;;;;;;;;;;;;;;;21.81;26.14;97313.69;5052622;28;990;-79
2023/03/05 09:16:16;;;;;;;;;;;;;;;21.64;26.49;97300.19;5053773;28;1244;-79
2023/03/05 09:18:41;;;;;;;;;;;;;;;22.07;26.04;97305.78;5052698;28;1148;-79
2023/03/05 09:21:10;;;;;;;;;;;;;;;22.08;26.26;97303.75;5058954;28;1906;-79
2023/03/05 09:23:36;;;;;;;;;;;;;;;22.07;26.04;97304.97;5059318;28;945;-80
2023/03/05 09:26:04;;;;;;;;;;;;;;;22.47;25.41;97298.53;5091521;28;1223;-79
2023/03/05 09:28:29;;;;;;;;;;;;;;;22.04;26.12;97286.09;5074593;28;1169;-79
2023/03/05 09:30:55;;;;;;;;;;;;;;;21.96;25.89;97284.78;5065382;28;1536;-79
2023/03/05 09:33:20;;;;;;;;;;;;;;;21.91;25.95;97279.72;5077629;28;1363;-79
2023/03/05 09:35:47;;;;;;;;;;;;;;;21.65;26.62;97285.56;5078758;28;1445;-79
2023/03/05 09:38:13;;;;;;;;;;;;;;;21.90;26.60;97289.47;5078736;28;1193;-79
2023/03/05 09:40:44;;;;;;;;;;;;;;;21.87;26.25;97287.59;5078309;28;1985;-79
2023/03/05 09:43:13;;;;;;;;;;;;;;;22.15;25.92;97289.31;5057535;28;1618;-79
2023/03/05 09:45:41;;;;;;;;;;;;;;;21.96;25.85;97294.06;5073798;28;1375;-79
2023/03/05 09:48:15;;;;;;;;;;;;;;;21.85;26.20;97294.47;5088519;28;1587;-79
2023/03/05 09:50:44;;;;;;;;;;;;;;;21.47;26.76;97296.78;5077056;28;1568;-79
2023/03/05 09:53:13;;;;;;;;;;;;;;;21.72;26.90;97285.28;5078632;28;954;-79
2023/03/05 09:55:39;;;;;;;;;;;;;;;21.98;26.12;97288.72;5077500;28;887;-80
2023/03/05 09:58:07;;;;;;;;;;;;;;;22.11;25.99;97282.97;5104880;28;1564;-80
2023/03/05 10:00:33;;;;;;;;;;;;;;;22.10;25.84;97273.69;5058259;28;1906;-79
2023/03/05 10:02:59;;;;;;;;;;;;;;;21.65;26.27;97279.88;5077206;28;929;-79
2023/03/05 10:05:28;;;;;;;;;;;;;;;21.47;26.80;97279.78;5076984;28;962;-79
2023/03/05 10:07:58;;;;;;;;;;;;;;;21.56;26.50;97262.88;5060779;28;1169;-79
2023/03/05 10:10:33;;;;;;;;;;;;;;;21.74;26.60;97277.13;5058813;28;1458;-79
2023/03/05 10:13:01;;;;;;;;;;;;;;;21.94;26.11;97279.59;5059129;28;895;-79
2023/03/05 10:15:35;;;;;;;;;;;;;;;22.16;25.98;97271.03;5041340;28;1892;-80
2023/03/05 10:18:19;;;;;;;;;;;;;;;21.65;26.50;97265.72;5055900;28;1509;-79
2023/03/05 10:20:45;;;;;;;;;;;;;;;21.52;26.47;97260.16;5050271;28;1914;-79
2023/03/05 10:23:14;;;;;;;;;;;;;;;21.50;26.40;97253.38;5055310;28;1604;-79
2023/03/05 10:26:09;;;;;;;;;;;;;;;21.87;26.47;97262.09;5089008;28;1540;-79
2023/03/05 10:28:40;;;;;;;;;;;;;;;21.92;26.21;97253.00;4993757;28;1681;-79
2023/03/05 10:31:12;;;;;;;;;;;;;;;21.95;26.00;97249.22;4974293;28;1524;-80
2023/03/05 10:33:43;;;;;;;;;;;;;;;21.87;25.91;97245.88;4996413;28;965;-80
2023/03/05 10:36:24;;;;;;;;;;;;;;;21.63;26.29;97248.44;4996172;28;1023;-80
2023/03/05 10:38:58;;;;;;;;;;;;;;;21.44;26.80;97236.19;4979986;28;1124;-80
2023/03/05 10:41:31;;;;;;;;;;;;;;;21.75;26.46;97233.38;5005900;28;1914;-80
2023/03/05 10:44:01;;;;;;;;;;;;;;;21.97;25.98;97224.06;4999269;28;1227;-80
2023/03/05 10:46:30;;;;;;;;;;;;;;;22.15;25.84;97224.13;5015376;28;1008;-80
2023/03/05 10:48:59;;;;;;;;;;;;;;;21.98;25.95;97225.63;4998931;28;947;-79
2023/03/05 10:51:32;;;;;;;;;;;;;;;21.85;26.07;97220.84;5015108;28;1035;-79
2023/03/05 10:53:58;;;;;;;;;;;;;;;21.66;26.35;97213.53;5015693;28;1011;-79
2023/03/05 10:56:25;;;;;;;;;;;;;;;21.87;26.00;97225.28;4999299;28;1188;-80
2023/03/05 10:58:51;;;;;;;;;;;;;;;22.07;25.61;97217.97;5015294;28;1028;-79
2023/03/05 11:01:17;;;;;;;;;;;;;;;22.04;25.92;97215.25;5015097;28;1918;-79
2023/03/05 11:03:45;;;;;;;;;;;;;;;22.12;25.64;97216.56;5015023;28;909;-79
2023/03/05 11:06:11;;;;;;;;;;;;;;;21.75;25.90;97222.06;5057267;28;924;-80
2023/03/05 11:08:36;;;;;;;;;;;;;;;21.77;25.76;97213.13;5089451;28;1291;-79
2023/03/05 11:11:02;;;;;;;;;;;;;;;21.67;26.26;97203.78;5056974;28;856;-79
2023/03/05 11:13:27;;;;;;;;;;;;;;;21.76;26.25;97195.34;5057014;28;904;-79
2023/03/05 11:16:03;;;;;;;;;;;;;;;21.99;25.70;97196.03;5072534;28;1251;-79
2023/03/05 11:18:35;;;;;;;;;;;;;;;22.08;25.65;97198.91;5054476;28;1313;-79
2023/03/05 11:21:11;;;;;;;;;;;;;;;21.79;26.05;97187.94;5037941;28;1910;-79
2023/03/05 11:23:37;;;;;;;;;;;;;;;21.50;26.26;97188.28;5021710;28;1239;-79
2023/03/05 11:26:21;;;;;;;;;;;;;;;21.07;26.92;97193.50;5037787;28;908;-79
2023/03/05 11:28:54;;;;;;;;;;;;;;;21.91;25.83;97186.25;5017902;28;1165;-79
2023/03/05 11:31:23;;;;;;;;;;;;;;;22.03;25.49;97185.38;5034702;28;1003;-79
2023/03/05 11:34:07;;;;;;;;;;;;;;;22.33;25.47;97181.69;5001818;28;1247;-79
2023/03/05 11:36:33;;;;;;;;;;;;;;;21.75;26.00;97176.75;5034572;28;1200;-79
2023/03/05 11:39:07;;;;;;;;;;;;;;;21.32;26.42;97178.44;5033981;28;952;-79
2023/03/05 11:41:34;;;;;;;;;;;;;;;21.41;26.52;97168.44;5034105;28;1914;-79
2023/03/05 11:44:02;;;;;;;;;;;;;;;21.83;25.83;97166.72;5034033;28;1022;-79
2023/03/05 11:46:28;;;;;;;;;;;;;;;22.05;25.58;97166.63;5034170;28;1153;-79
2023/03/05 11:48:54;;;;;;;;;;;;;;;21.90;25.70;97156.34;5039596;28;938;-79
2023/03/05 11:51:21;;;;;;;;;;;;;;;21.74;26.10;97149.69;5037638;28;867;-80
2023/03/05 11:53:49;;;;;;;;;;;;;;;21.45;26.00;97157.75;5014189;28;1004;-79
2023/03/05 11:56:24;;;;;;;;;;;;;;;21.51;26.10;97155.91;4998106;28;943;-80
2023/03/05 11:59:12;;;;;;;;;;;;;;;21.73;25.87;97156.63;4997786;28;1307;-81
2023/03/05 12:01:42;;;;;;;;;;;;;;;21.97;25.76;97145.53;4978222;28;1910;-79
2023/03/05 12:04:08;;;;;;;;;;;;;;;22.02;25.40;97141.28;4978447;28;1215;-80
2023/03/05 12:06:39;;;;;;;;;;;;;;;21.85;25.50;97147.22;4994424;28;1267;-80
2023/03/05 12:09:20;;;;;;;;;;;;;;;21.57;25.81;97148.38;4994453;28;940;-80
2023/03/05 12:11:46;;;;;;;;;;;;;;;21.41;26.25;97134.47;4978057;28;991;-79
2023/03/05 12:14:18;;;;;;;;;;;;;;;21.56;26.34;97135.50;4994385;28;977;-79
2023/03/05 12:16:57;;;;;;;;;;;;;;;21.92;25.39;97134.81;5013729;28;1009;-79
2023/03/05 12:19:31;;;;;;;;;;;;;;;21.68;25.65;97131.75;4997765;28;1372;-80
2023/03/05 12:21:57;;;;;;;;;;;;;;;21.70;25.79;97132.06;4997826;28;1985;-80
2023/03/05 12:24:23;;;;;;;;;;;;;;;21.48;25.84;97146.28;4981385;28;1115;-80
2023/03/05 12:26:58;;;;;;;;;;;;;;;21.74;25.75;97140.41;5013670;28;1005;-81
2023/03/05 12:29:27;;;;;;;;;;;;;;;22.10;25.37;97139.72;5014347;28;900;-80
2023/03/05 12:31:53;;;;;;;;;;;;;;;22.36;24.86;97135.38;5026839;28;1123;-80
2023/03/05 12:34:37;;;;;;;;;;;;;;;21.63;25.63;97140.84;5056975;28;1004;-80
2023/03/05 12:37:03;;;;;;;;;;;;;;;21.54;26.00;97127.44;5056447;28;1068;-80
2023/03/05 12:39:49;;;;;;;;;;;;;;;21.68;25.87;97126.09;5056508;28;1138;-81
2023/03/05 12:42:27;;;;;;;;;;;;;;;22.09;25.12;97126.81;5089660;28;1972;-80
2023/03/05 12:45:14;;;;;;;;;;;;;;;21.88;25.35;97122.84;5073330;28;1070;-80
2023/03/05 12:47:40;;;;;;;;;;;;;;;21.89;25.55;97118.75;5046862;28;1149;-80
2023/03/05 12:50:25;;;;;;;;;;;;;;;21.79;25.72;97112.28;5032780;28;1500;-80
2023/03/05 12:52:51;;;;;;;;;;;;;;;21.50;25.77;97103.38;5056086;28;1501;-80
2023/03/05 12:55:18;;;;;;;;;;;;;;;21.45;26.12;97107.63;5055645;28;1349;-80
2023/03/05 12:57:44;;;;;;;;;;;;;;;21.92;25.63;97119.88;5056457;28;1496;-80
2023/03/05 13:00:20;;;;;;;;;;;;;;;21.98;25.16;97110.28;5056384;28;1980;-81